sensor_id;sensor_type;location;lat;lon;timestamp;pressure;altitude;pressure_sealevel;temperature;humidity
72061;BME280;59925;52.136;5.420;2022-10-16T00:02:17;101138.25;;;11.88;84.28
72061;BME280;59925;52.136;5.420;2022-10-16T00:04:44;101123.19;;;11.87;84.44
72061;BME280;59925;52.136;5.420;2022-10-16T00:07:10;101135.84;;;11.87;84.42
72061;BME280;59925;52.136;5.420;2022-10-16T00:09:37;101126.16;;;11.86;84.40
72061;BME280;59925;52.136;5.420;2022-10-16T00:12:03;101118.38;;;11.84;84.40
72061;BME280;59925;52.136;5.420;2022-10-16T00:14:30;101126.16;;;11.86;84.21
72061;BME280;59925;52.136;5.420;2022-10-16T00:16:56;101132.34;;;11.81;84.24
72061;BME280;59925;52.136;5.420;2022-10-16T00:19:23;101128.59;;;11.82;84.41
72061;BME280;59925;52.136;5.420;2022-10-16T00:21:49;101131.00;;;11.84;84.34
72061;BME280;59925;52.136;5.420;2022-10-16T00:24:15;101139.06;;;11.84;84.49
72061;BME280;59925;52.136;5.420;2022-10-16T00:26:42;101137.97;;;11.85;84.62
72061;BME280;59925;52.136;5.420;2022-10-16T00:29:09;101141.47;;;11.85;84.51
72061;BME280;59925;52.136;5.420;2022-10-16T00:31:36;101131.78;;;11.89;84.29
72061;BME280;59925;52.136;5.420;2022-10-16T00:34:02;101131.53;;;11.91;84.39
72061;BME280;59925;52.136;5.420;2022-10-16T00:36:28;101133.41;;;11.90;84.19
72061;BME280;59925;52.136;5.420;2022-10-16T00:38:57;101129.91;;;11.95;84.47
72061;BME280;59925;52.136;5.420;2022-10-16T00:41:27;101124.56;;;11.90;84.56
72061;BME280;59925;52.136;5.420;2022-10-16T00:43:56;101125.63;;;11.89;84.43
72061;BME280;59925;52.136;5.420;2022-10-16T00:46:38;101125.06;;;11.92;84.49
72061;BME280;59925;52.136;5.420;2022-10-16T00:49:14;101126.41;;;11.94;84.70
72061;BME280;59925;52.136;5.420;2022-10-16T00:51:52;101132.88;;;11.99;84.68
72061;BME280;59925;52.136;5.420;2022-10-16T00:54:25;101136.91;;;12.01;84.90
72061;BME280;59925;52.136;5.420;2022-10-16T00:56:53;101134.78;;;12.03;84.60
72061;BME280;59925;52.136;5.420;2022-10-16T01:01:55;101139.03;;;12.04;85.01
72061;BME280;59925;52.136;5.420;2022-10-16T01:04:23;101135.56;;;12.09;84.75
72061;BME280;59925;52.136;5.420;2022-10-16T01:07:11;101143.06;;;12.12;84.75
72061;BME280;59925;52.136;5.420;2022-10-16T01:09:51;101144.66;;;12.13;84.71
72061;BME280;59925;52.136;5.420;2022-10-16T01:14:58;101151.91;;;12.18;84.81
72061;BME280;59925;52.136;5.420;2022-10-16T01:17:28;101141.16;;;12.23;84.67
72061;BME280;59925;52.136;5.420;2022-10-16T01:20:39;101139.00;;;12.30;84.60
72061;BME280;59925;52.136;5.420;2022-10-16T01:28:56;101134.66;;;12.39;84.50
72061;BME280;59925;52.136;5.420;2022-10-16T01:31:26;101140.84;;;12.40;84.35
72061;BME280;59925;52.136;5.420;2022-10-16T01:34:02;101140.59;;;12.41;84.34
72061;BME280;59925;52.136;5.420;2022-10-16T01:36:36;101140.00;;;12.45;84.36
72061;BME280;59925;52.136;5.420;2022-10-16T01:39:04;101138.94;;;12.46;84.21
72061;BME280;59925;52.136;5.420;2022-10-16T01:41:36;101135.69;;;12.49;84.12
72061;BME280;59925;52.136;5.420;2022-10-16T01:44:07;101136.78;;;12.48;84.17
72061;BME280;59925;52.136;5.420;2022-10-16T01:46:37;101131.41;;;12.48;84.19
72061;BME280;59925;52.136;5.420;2022-10-16T01:49:06;101139.75;;;12.46;84.48
72061;BME280;59925;52.136;5.420;2022-10-16T01:51:33;101130.34;;;12.44;84.55
72061;BME280;59925;52.136;5.420;2022-10-16T01:54:01;101122.28;;;12.44;84.62
72061;BME280;59925;52.136;5.420;2022-10-16T01:56:29;101137.06;;;12.46;84.55
72061;BME280;59925;52.136;5.420;2022-10-16T01:59:00;101130.88;;;12.46;84.69
72061;BME280;59925;52.136;5.420;2022-10-16T02:01:29;101124.94;;;12.49;84.59
72061;BME280;59925;52.136;5.420;2022-10-16T02:04:07;101124.41;;;12.47;84.77
72061;BME280;59925;52.136;5.420;2022-10-16T02:06:34;101115.56;;;12.46;84.81
72061;BME280;59925;52.136;5.420;2022-10-16T02:09:02;101122.53;;;12.47;84.79
72061;BME280;59925;52.136;5.420;2022-10-16T02:11:28;101125.50;;;12.46;84.87
72061;BME280;59925;52.136;5.420;2022-10-16T02:13:59;101126.31;;;12.46;84.96
72061;BME280;59925;52.136;5.420;2022-10-16T02:16:39;101123.88;;;12.45;85.00
72061;BME280;59925;52.136;5.420;2022-10-16T02:19:06;101129.00;;;12.46;85.15
72061;BME280;59925;52.136;5.420;2022-10-16T02:24:54;101129.78;;;12.47;85.07
72061;BME280;59925;52.136;5.420;2022-10-16T02:27:28;101140.28;;;12.48;85.30
72061;BME280;59925;52.136;5.420;2022-10-16T02:30:07;101147.00;;;12.46;85.09
72061;BME280;59925;52.136;5.420;2022-10-16T02:32:37;101145.66;;;12.43;85.21
72061;BME280;59925;52.136;5.420;2022-10-16T02:35:06;101135.19;;;12.41;85.31
72061;BME280;59925;52.136;5.420;2022-10-16T02:37:34;101136.00;;;12.42;85.58
72061;BME280;59925;52.136;5.420;2022-10-16T02:40:01;101133.06;;;12.38;85.36
72061;BME280;59925;52.136;5.420;2022-10-16T02:42:33;101139.50;;;12.37;85.39
72061;BME280;59925;52.136;5.420;2022-10-16T02:44:59;101143.28;;;12.36;85.56
72061;BME280;59925;52.136;5.420;2022-10-16T02:47:25;101147.56;;;12.32;85.59
72061;BME280;59925;52.136;5.420;2022-10-16T02:49:52;101151.34;;;12.31;85.75
72061;BME280;59925;52.136;5.420;2022-10-16T02:52:19;101149.75;;;12.25;86.04
72061;BME280;59925;52.136;5.420;2022-10-16T02:54:45;101159.19;;;12.22;86.17
72061;BME280;59925;52.136;5.420;2022-10-16T02:57:11;101160.81;;;12.18;86.12
72061;BME280;59925;52.136;5.420;2022-10-16T02:59:38;101160.50;;;12.20;86.30
72061;BME280;59925;52.136;5.420;2022-10-16T03:02:04;101155.41;;;12.18;86.41
72061;BME280;59925;52.136;5.420;2022-10-16T03:04:31;101163.19;;;12.20;86.54
72061;BME280;59925;52.136;5.420;2022-10-16T03:06:57;101156.50;;;12.22;86.57
72061;BME280;59925;52.136;5.420;2022-10-16T03:09:24;101156.50;;;12.22;86.53
72061;BME280;59925;52.136;5.420;2022-10-16T03:11:50;101156.50;;;12.22;86.78
72061;BME280;59925;52.136;5.420;2022-10-16T03:14:16;101148.94;;;12.24;86.85
72061;BME280;59925;52.136;5.420;2022-10-16T03:16:43;101142.78;;;12.24;86.63
72061;BME280;59925;52.136;5.420;2022-10-16T03:19:09;101142.78;;;12.24;86.79
72061;BME280;59925;52.136;5.420;2022-10-16T03:21:36;101148.44;;;12.22;86.83
72061;BME280;59925;52.136;5.420;2022-10-16T03:24:02;101155.69;;;12.22;86.68
72061;BME280;59925;52.136;5.420;2022-10-16T03:26:29;101152.44;;;12.20;86.92
72061;BME280;59925;52.136;5.420;2022-10-16T03:28:55;101156.22;;;12.19;87.12
72061;BME280;59925;52.136;5.420;2022-10-16T03:31:22;101159.47;;;12.16;87.24
72061;BME280;59925;52.136;5.420;2022-10-16T03:33:48;101155.69;;;12.11;87.27
72061;BME280;59925;52.136;5.420;2022-10-16T03:36:14;101155.44;;;12.08;87.37
72061;BME280;59925;52.136;5.420;2022-10-16T03:38:41;101168.06;;;12.07;87.63
72061;BME280;59925;52.136;5.420;2022-10-16T03:41:07;101167.53;;;12.05;87.53
72061;BME280;59925;52.136;5.420;2022-10-16T03:43:34;101158.38;;;12.06;87.75
72061;BME280;59925;52.136;5.420;2022-10-16T03:46:00;101175.34;;;12.07;87.83
72061;BME280;59925;52.136;5.420;2022-10-16T03:48:27;101176.94;;;12.03;87.86
72061;BME280;59925;52.136;5.420;2022-10-16T03:50:53;101174.00;;;11.99;87.96
72061;BME280;59925;52.136;5.420;2022-10-16T03:53:21;101175.31;;;11.96;87.83
72061;BME280;59925;52.136;5.420;2022-10-16T03:55:47;101174.25;;;11.92;87.84
72061;BME280;59925;52.136;5.420;2022-10-16T03:58:13;101167.53;;;11.90;88.09
72061;BME280;59925;52.136;5.420;2022-10-16T04:00:44;101175.59;;;11.90;88.41
72061;BME280;59925;52.136;5.420;2022-10-16T04:03:11;101175.84;;;11.88;88.34
72061;BME280;59925;52.136;5.420;2022-10-16T04:05:38;101187.66;;;11.87;88.38
72061;BME280;59925;52.136;5.420;2022-10-16T04:08:05;101187.66;;;11.87;88.64
72061;BME280;59925;52.136;5.420;2022-10-16T04:10:31;101200.31;;;11.87;88.57
72061;BME280;59925;52.136;5.420;2022-10-16T04:12:58;101189.31;;;11.83;88.54
72061;BME280;59925;52.136;5.420;2022-10-16T04:15:25;101194.66;;;11.78;88.55
72061;BME280;59925;52.136;5.420;2022-10-16T04:17:51;101196.28;;;11.79;88.63
72061;BME280;59925;52.136;5.420;2022-10-16T04:20:18;101216.16;;;11.78;88.74
72061;BME280;59925;52.136;5.420;2022-10-16T04:22:48;101218.56;;;11.79;88.72
72061;BME280;59925;52.136;5.420;2022-10-16T04:25:14;101220.44;;;11.79;88.81
72061;BME280;59925;52.136;5.420;2022-10-16T04:27:40;101214.53;;;11.77;88.78
72061;BME280;59925;52.136;5.420;2022-10-16T04:30:11;101215.06;;;11.79;89.12
72061;BME280;59925;52.136;5.420;2022-10-16T04:32:38;101224.50;;;11.76;88.82
72061;BME280;59925;52.136;5.420;2022-10-16T04:35:05;101226.09;;;11.77;89.01
72061;BME280;59925;52.136;5.420;2022-10-16T04:37:31;101218.56;;;11.74;89.09
72061;BME280;59925;52.136;5.420;2022-10-16T04:39:58;101226.09;;;11.77;89.07
72061;BME280;59925;52.136;5.420;2022-10-16T04:42:24;101231.19;;;11.79;89.07
72061;BME280;59925;52.136;5.420;2022-10-16T04:44:51;101230.38;;;11.78;88.93
72061;BME280;59925;52.136;5.420;2022-10-16T04:47:17;101236.03;;;11.77;88.93
72061;BME280;59925;52.136;5.420;2022-10-16T04:49:43;101249.19;;;11.73;89.19
72061;BME280;59925;52.136;5.420;2022-10-16T04:52:10;101247.56;;;11.72;89.29
72061;BME280;59925;52.136;5.420;2022-10-16T04:54:36;101246.75;;;11.77;89.23
72061;BME280;59925;52.136;5.420;2022-10-16T04:57:03;101249.19;;;11.78;89.13
72061;BME280;59925;52.136;5.420;2022-10-16T04:59:30;101255.66;;;11.77;89.32
72061;BME280;59925;52.136;5.420;2022-10-16T05:01:57;101256.97;;;11.80;89.35
72061;BME280;59925;52.136;5.420;2022-10-16T05:04:23;101269.34;;;11.81;89.02
72061;BME280;59925;52.136;5.420;2022-10-16T05:06:50;101261.53;;;11.79;89.21
72061;BME280;59925;52.136;5.420;2022-10-16T05:09:16;101264.78;;;11.76;89.17
72061;BME280;59925;52.136;5.420;2022-10-16T05:11:42;101256.41;;;11.73;89.17
72061;BME280;59925;52.136;5.420;2022-10-16T05:14:09;101267.72;;;11.75;89.25
72061;BME280;59925;52.136;5.420;2022-10-16T05:16:36;101265.03;;;11.75;89.18
72061;BME280;59925;52.136;5.420;2022-10-16T05:19:02;101278.47;;;11.70;89.10
72061;BME280;59925;52.136;5.420;2022-10-16T05:21:49;101279.25;;;11.65;89.18
72061;BME280;59925;52.136;5.420;2022-10-16T05:24:15;101290.78;;;11.60;89.51
72061;BME280;59925;52.136;5.420;2022-10-16T05:26:41;101281.94;;;11.60;89.65
72061;BME280;59925;52.136;5.420;2022-10-16T05:29:09;101288.88;;;11.56;89.42
72061;BME280;59925;52.136;5.420;2022-10-16T05:31:35;101290.78;;;11.55;89.60
72061;BME280;59925;52.136;5.420;2022-10-16T05:34:02;101295.59;;;11.53;89.81
72061;BME280;59925;52.136;5.420;2022-10-16T05:36:28;101293.44;;;11.50;89.33
72061;BME280;59925;52.136;5.420;2022-10-16T05:38:55;101298.53;;;11.46;89.66
72061;BME280;59925;52.136;5.420;2022-10-16T05:41:21;101315.16;;;11.43;89.66
72061;BME280;59925;52.136;5.420;2022-10-16T05:43:49;101313.81;;;11.46;89.80
72061;BME280;59925;52.136;5.420;2022-10-16T05:46:16;101321.34;;;11.49;90.13
72061;BME280;59925;52.136;5.420;2022-10-16T05:48:43;101324.59;;;11.51;90.25
72061;BME280;59925;52.136;5.420;2022-10-16T05:51:11;101328.06;;;11.52;90.25
72061;BME280;59925;52.136;5.420;2022-10-16T05:53:39;101335.38;;;11.56;90.27
72061;BME280;59925;52.136;5.420;2022-10-16T05:56:07;101336.19;;;11.62;90.25
72061;BME280;59925;52.136;5.420;2022-10-16T05:58:36;101340.47;;;11.63;90.21
72061;BME280;59925;52.136;5.420;2022-10-16T06:01:05;101349.59;;;11.62;90.28
72061;BME280;59925;52.136;5.420;2022-10-16T06:03:33;101343.97;;;11.63;90.45
72061;BME280;59925;52.136;5.420;2022-10-16T06:06:08;101352.28;;;11.67;90.48
72061;BME280;59925;52.136;5.420;2022-10-16T06:08:38;101350.16;;;11.69;90.19
72061;BME280;59925;52.136;5.420;2022-10-16T06:11:06;101355.28;;;11.71;90.31
72061;BME280;59925;52.136;5.420;2022-10-16T06:13:33;101353.94;;;11.73;90.40
72061;BME280;59925;52.136;5.420;2022-10-16T06:16:00;101361.72;;;11.75;90.10
72061;BME280;59925;52.136;5.420;2022-10-16T06:18:28;101362.78;;;11.74;90.22
72061;BME280;59925;52.136;5.420;2022-10-16T06:20:55;101371.16;;;11.77;90.20
72061;BME280;59925;52.136;5.420;2022-10-16T06:23:22;101371.16;;;11.77;90.14
72061;BME280;59925;52.136;5.420;2022-10-16T06:25:49;101378.66;;;11.80;90.32
72061;BME280;59925;52.136;5.420;2022-10-16T06:28:16;101391.03;;;11.81;90.18
72061;BME280;59925;52.136;5.420;2022-10-16T06:30:42;101386.47;;;11.82;90.24
72061;BME280;59925;52.136;5.420;2022-10-16T06:33:12;101388.09;;;11.88;90.12
72061;BME280;59925;52.136;5.420;2022-10-16T06:35:39;101389.44;;;11.91;89.95
72061;BME280;59925;52.136;5.420;2022-10-16T06:38:05;101383.81;;;11.92;90.17
72061;BME280;59925;52.136;5.420;2022-10-16T06:40:31;101389.19;;;11.92;89.94
72061;BME280;59925;52.136;5.420;2022-10-16T06:42:58;101390.53;;;11.95;90.21
72061;BME280;59925;52.136;5.420;2022-10-16T06:45:24;101397.78;;;11.94;89.78
72061;BME280;59925;52.136;5.420;2022-10-16T06:47:51;101403.72;;;11.96;89.95
72061;BME280;59925;52.136;5.420;2022-10-16T06:50:17;101407.19;;;11.97;89.98
72061;BME280;59925;52.136;5.420;2022-10-16T06:52:43;101415.00;;;11.99;89.86
72061;BME280;59925;52.136;5.420;2022-10-16T06:55:10;101426.31;;;12.01;90.01
72061;BME280;59925;52.136;5.420;2022-10-16T06:57:36;101418.25;;;12.01;90.03
72061;BME280;59925;52.136;5.420;2022-10-16T07:00:03;101419.59;;;12.03;90.08
72061;BME280;59925;52.136;5.420;2022-10-16T07:02:29;101419.34;;;12.05;90.03
72061;BME280;59925;52.136;5.420;2022-10-16T07:04:56;101413.69;;;12.06;89.96
72061;BME280;59925;52.136;5.420;2022-10-16T07:07:23;101404.03;;;12.10;90.01
72061;BME280;59925;52.136;5.420;2022-10-16T07:09:50;101402.44;;;12.15;89.75
72061;BME280;59925;52.136;5.420;2022-10-16T07:12:17;101418.56;;;12.20;89.63
72061;BME280;59925;52.136;5.420;2022-10-16T07:14:43;101426.63;;;12.25;89.50
72061;BME280;59925;52.136;5.420;2022-10-16T07:17:10;101435.78;;;12.29;89.18
72061;BME280;59925;52.136;5.420;2022-10-16T07:19:36;101437.69;;;12.34;88.87
72061;BME280;59925;52.136;5.420;2022-10-16T07:22:03;101446.28;;;12.36;88.86
72061;BME280;59925;52.136;5.420;2022-10-16T07:24:29;101444.94;;;12.38;88.87
72061;BME280;59925;52.136;5.420;2022-10-16T07:26:55;101457.03;;;12.41;88.72
72061;BME280;59925;52.136;5.420;2022-10-16T07:29:22;101455.97;;;12.42;88.73
72061;BME280;59925;52.136;5.420;2022-10-16T07:31:49;101457.59;;;12.43;88.55
72061;BME280;59925;52.136;5.420;2022-10-16T07:34:17;101454.38;;;12.46;88.25
72061;BME280;59925;52.136;5.420;2022-10-16T07:36:44;101466.22;;;12.50;87.97
72061;BME280;59925;52.136;5.420;2022-10-16T07:39:10;101477.78;;;12.56;87.78
72061;BME280;59925;52.136;5.420;2022-10-16T07:41:36;101475.63;;;12.58;87.58
72061;BME280;59925;52.136;5.420;2022-10-16T07:44:03;101483.44;;;12.60;87.24
72061;BME280;59925;52.136;5.420;2022-10-16T07:46:30;101488.00;;;12.59;87.13
72061;BME280;59925;52.136;5.420;2022-10-16T07:48:57;101488.00;;;12.59;87.08
72061;BME280;59925;52.136;5.420;2022-10-16T07:51:24;101504.13;;;12.59;86.85
72061;BME280;59925;52.136;5.420;2022-10-16T07:53:52;101514.09;;;12.59;86.94
72061;BME280;59925;52.136;5.420;2022-10-16T07:56:20;101522.44;;;12.57;87.09
72061;BME280;59925;52.136;5.420;2022-10-16T07:58:47;101522.94;;;12.59;87.48
72061;BME280;59925;52.136;5.420;2022-10-16T08:01:16;101535.34;;;12.70;87.50
72061;BME280;59925;52.136;5.420;2022-10-16T08:03:44;101526.75;;;12.84;87.48
72061;BME280;59925;52.136;5.420;2022-10-16T08:06:11;101524.88;;;12.95;87.51
72061;BME280;59925;52.136;5.420;2022-10-16T08:08:37;101542.41;;;13.08;87.00
72061;BME280;59925;52.136;5.420;2022-10-16T08:11:04;101531.63;;;13.18;86.65
72061;BME280;59925;52.136;5.420;2022-10-16T08:13:31;101538.34;;;13.36;86.65
72061;BME280;59925;52.136;5.420;2022-10-16T08:15:58;101543.75;;;13.46;86.19
72061;BME280;59925;52.136;5.420;2022-10-16T08:18:24;101539.91;;;13.73;85.30
72061;BME280;59925;52.136;5.420;2022-10-16T08:20:58;101546.59;;;13.97;84.26
72061;BME280;59925;52.136;5.420;2022-10-16T08:23:25;101541.78;;;13.83;83.34
72061;BME280;59925;52.136;5.420;2022-10-16T08:25:53;101547.66;;;14.01;83.58
72061;BME280;59925;52.136;5.420;2022-10-16T08:28:20;101553.13;;;14.46;82.52
72061;BME280;59925;52.136;5.420;2022-10-16T08:30:46;101556.50;;;14.72;81.68
72061;BME280;59925;52.136;5.420;2022-10-16T08:33:13;101561.53;;;14.34;81.38
72061;BME280;59925;52.136;5.420;2022-10-16T08:35:39;101553.56;;;14.68;80.75
72061;BME280;59925;52.136;5.420;2022-10-16T08:38:06;101562.03;;;14.91;80.44
72061;BME280;59925;52.136;5.420;2022-10-16T08:40:34;101555.72;;;14.71;80.58
72061;BME280;59925;52.136;5.420;2022-10-16T08:48:47;101579.59;;;14.94;79.95
72061;BME280;59925;52.136;5.420;2022-10-16T08:51:36;101580.63;;;14.98;79.50
72061;BME280;59925;52.136;5.420;2022-10-16T08:54:31;101585.88;;;15.19;79.38
72061;BME280;59925;52.136;5.420;2022-10-16T08:57:10;101600.28;;;15.38;78.65
72061;BME280;59925;52.136;5.420;2022-10-16T08:59:37;101603.13;;;15.23;78.68
72061;BME280;59925;52.136;5.420;2022-10-16T09:02:32;101599.19;;;15.44;78.26
72061;BME280;59925;52.136;5.420;2022-10-16T09:07:48;101603.91;;;16.98;74.04
72061;BME280;59925;52.136;5.420;2022-10-16T09:10:26;101598.84;;;17.44;73.12
72061;BME280;59925;52.136;5.420;2022-10-16T09:16:27;101611.97;;;17.37;71.99
72061;BME280;59925;52.136;5.420;2022-10-16T09:19:01;101615.03;;;18.10;68.95
72061;BME280;59925;52.136;5.420;2022-10-16T09:21:35;101616.72;;;18.06;68.71
72061;BME280;59925;52.136;5.420;2022-10-16T09:24:22;101635.88;;;18.65;68.30
72061;BME280;59925;52.136;5.420;2022-10-16T09:26:54;101627.56;;;18.48;66.71
72061;BME280;59925;52.136;5.420;2022-10-16T09:29:21;101622.63;;;18.50;66.91
72061;BME280;59925;52.136;5.420;2022-10-16T09:31:48;101621.53;;;18.23;68.18
72061;BME280;59925;52.136;5.420;2022-10-16T09:34:38;101631.78;;;17.98;68.69
72061;BME280;59925;52.136;5.420;2022-10-16T09:37:12;101626.44;;;17.79;68.77
72061;BME280;59925;52.136;5.420;2022-10-16T09:39:50;101633.44;;;17.66;70.48
72061;BME280;59925;52.136;5.420;2022-10-16T09:42:43;101639.75;;;17.61;69.38
72061;BME280;59925;52.136;5.420;2022-10-16T09:45:21;101641.00;;;17.83;70.22
72061;BME280;59925;52.136;5.420;2022-10-16T09:47:49;101638.09;;;17.80;70.37
72061;BME280;59925;52.136;5.420;2022-10-16T09:50:25;101653.13;;;17.72;69.61
72061;BME280;59925;52.136;5.420;2022-10-16T09:53:12;101647.97;;;17.56;68.16
72061;BME280;59925;52.136;5.420;2022-10-16T09:55:49;101649.06;;;17.55;69.27
72061;BME280;59925;52.136;5.420;2022-10-16T09:58:16;101657.59;;;17.96;70.00
72061;BME280;59925;52.136;5.420;2022-10-16T10:00:49;101652.97;;;17.96;68.00
72061;BME280;59925;52.136;5.420;2022-10-16T10:03:37;101657.88;;;17.94;68.77
72061;BME280;59925;52.136;5.420;2022-10-16T10:06:25;101662.06;;;18.19;67.94
72061;BME280;59925;52.136;5.420;2022-10-16T10:08:56;101666.66;;;18.05;67.64
72061;BME280;59925;52.136;5.420;2022-10-16T10:12:05;101660.66;;;17.75;67.83
72061;BME280;59925;52.136;5.420;2022-10-16T10:24:56;101664.34;;;17.98;66.81
72061;BME280;59925;52.136;5.420;2022-10-16T10:27:32;101667.06;;;18.54;66.71
72061;BME280;59925;52.136;5.420;2022-10-16T10:32:50;101683.63;;;18.94;64.33
72061;BME280;59925;52.136;5.420;2022-10-16T10:35:34;101681.66;;;18.44;65.38
72061;BME280;59925;52.136;5.420;2022-10-16T10:40:54;101682.00;;;18.93;63.84
72061;BME280;59925;52.136;5.420;2022-10-16T10:46:07;101690.06;;;19.67;64.06
72061;BME280;59925;52.136;5.420;2022-10-16T10:48:47;101694.00;;;20.06;60.75
72061;BME280;59925;52.136;5.420;2022-10-16T10:51:48;101696.81;;;19.47;60.95
72061;BME280;59925;52.136;5.420;2022-10-16T10:54:32;101689.78;;;19.45;60.92
72061;BME280;59925;52.136;5.420;2022-10-16T10:57:11;101699.66;;;19.64;60.91
72061;BME280;59925;52.136;5.420;2022-10-16T10:59:53;101690.03;;;19.35;60.63
72061;BME280;59925;52.136;5.420;2022-10-16T11:05:28;101702.41;;;19.41;61.36
72061;BME280;59925;52.136;5.420;2022-10-16T11:08:06;101701.53;;;20.09;60.67
72061;BME280;59925;52.136;5.420;2022-10-16T11:10:58;101711.56;;;20.31;57.61
72061;BME280;59925;52.136;5.420;2022-10-16T11:16:15;101718.09;;;19.67;57.07
72061;BME280;59925;52.136;5.420;2022-10-16T11:18:56;101716.13;;;18.86;58.36
72061;BME280;59925;52.136;5.420;2022-10-16T11:21:27;101715.41;;;18.94;59.52
72061;BME280;59925;52.136;5.420;2022-10-16T11:26:43;101732.56;;;19.31;59.11
72061;BME280;59925;52.136;5.420;2022-10-16T11:29:20;101734.59;;;19.48;59.64
72061;BME280;59925;52.136;5.420;2022-10-16T11:31:53;101744.28;;;19.86;58.10
72061;BME280;59925;52.136;5.420;2022-10-16T11:34:44;101728.88;;;20.35;56.08
72061;BME280;59925;52.136;5.420;2022-10-16T11:37:18;101739.47;;;20.05;56.15
72061;BME280;59925;52.136;5.420;2022-10-16T11:39:46;101742.97;;;19.97;56.86
72061;BME280;59925;52.136;5.420;2022-10-16T11:42:20;101730.19;;;19.38;56.88
72061;BME280;59925;52.136;5.420;2022-10-16T11:44:57;101736.22;;;19.12;58.02
72061;BME280;59925;52.136;5.420;2022-10-16T11:55:45;101742.38;;;19.41;55.80
72061;BME280;59925;52.136;5.420;2022-10-16T11:58:26;101747.13;;;18.98;55.81
72061;BME280;59925;52.136;5.420;2022-10-16T12:01:14;101742.75;;;19.11;55.79
72061;BME280;59925;52.136;5.420;2022-10-16T12:03:58;101750.44;;;19.32;55.90
72061;BME280;59925;52.136;5.420;2022-10-16T12:06:36;101751.75;;;19.12;54.90
72061;BME280;59925;52.136;5.420;2022-10-16T12:09:19;101750.94;;;19.34;55.30
72061;BME280;59925;52.136;5.420;2022-10-16T12:11:47;101750.81;;;19.17;54.62
72061;BME280;59925;52.136;5.420;2022-10-16T12:16:57;101753.88;;;20.38;55.24
72061;BME280;59925;52.136;5.420;2022-10-16T12:19:27;101754.53;;;20.12;53.32
72061;BME280;59925;52.136;5.420;2022-10-16T12:22:00;101757.53;;;19.56;53.79
72061;BME280;59925;52.136;5.420;2022-10-16T12:24:38;101755.25;;;20.17;53.64
72061;BME280;59925;52.136;5.420;2022-10-16T12:27:20;101755.69;;;20.19;52.70
72061;BME280;59925;52.136;5.420;2022-10-16T12:29:55;101758.88;;;20.13;53.23
72061;BME280;59925;52.136;5.420;2022-10-16T12:32:34;101765.09;;;20.04;54.71
72061;BME280;59925;52.136;5.420;2022-10-16T12:35:23;101768.66;;;19.68;55.27
72061;BME280;59925;52.136;5.420;2022-10-16T12:37:52;101771.94;;;19.56;55.98
72061;BME280;59925;52.136;5.420;2022-10-16T12:40:30;101764.69;;;19.52;56.66
72061;BME280;59925;52.136;5.420;2022-10-16T12:42:58;101767.31;;;19.80;54.17
72061;BME280;59925;52.136;5.420;2022-10-16T12:45:29;101768.56;;;19.96;53.81
72061;BME280;59925;52.136;5.420;2022-10-16T12:47:58;101761.56;;;20.35;54.33
72061;BME280;59925;52.136;5.420;2022-10-16T12:50:37;101765.41;;;20.34;53.03
72061;BME280;59925;52.136;5.420;2022-10-16T12:53:21;101767.06;;;20.53;53.73
72061;BME280;59925;52.136;5.420;2022-10-16T12:56:00;101764.88;;;20.64;52.60
72061;BME280;59925;52.136;5.420;2022-10-16T13:00:58;101764.03;;;20.95;52.45
72061;BME280;59925;52.136;5.420;2022-10-16T13:06:53;101770.22;;;20.38;50.52
72061;BME280;59925;52.136;5.420;2022-10-16T13:09:47;101774.41;;;20.12;50.08
72061;BME280;59925;52.136;5.420;2022-10-16T13:12:50;101768.69;;;19.91;51.78
72061;BME280;59925;52.136;5.420;2022-10-16T13:15:41;101776.47;;;19.84;52.63
72061;BME280;59925;52.136;5.420;2022-10-16T13:26:19;101780.06;;;19.93;52.50
72061;BME280;59925;52.136;5.420;2022-10-16T13:28:49;101780.66;;;20.13;52.77
72061;BME280;59925;52.136;5.420;2022-10-16T13:31:22;101783.97;;;20.32;52.27
72061;BME280;59925;52.136;5.420;2022-10-16T13:33:53;101789.41;;;20.32;51.88
72061;BME280;59925;52.136;5.420;2022-10-16T13:36:22;101795.19;;;20.08;52.40
72061;BME280;59925;52.136;5.420;2022-10-16T13:38:59;101796.53;;;20.19;53.75
72061;BME280;59925;52.136;5.420;2022-10-16T13:41:26;101795.53;;;20.38;53.49
72061;BME280;59925;52.136;5.420;2022-10-16T13:43:53;101813.56;;;20.02;52.46
72061;BME280;59925;52.136;5.420;2022-10-16T13:46:24;101804.22;;;19.72;53.09
72061;BME280;59925;52.136;5.420;2022-10-16T13:48:59;101797.91;;;19.63;54.10
72061;BME280;59925;52.136;5.420;2022-10-16T13:51:26;101797.41;;;19.60;54.52
72061;BME280;59925;52.136;5.420;2022-10-16T13:53:54;101794.38;;;19.62;54.15
72061;BME280;59925;52.136;5.420;2022-10-16T13:56:22;101798.53;;;19.45;54.37
72061;BME280;59925;52.136;5.420;2022-10-16T13:59:02;101797.38;;;19.38;54.74
72061;BME280;59925;52.136;5.420;2022-10-16T14:01:49;101801.91;;;19.42;55.51
72061;BME280;59925;52.136;5.420;2022-10-16T14:04:17;101806.09;;;19.49;55.46
72061;BME280;59925;52.136;5.420;2022-10-16T14:06:46;101807.44;;;19.37;55.67
72061;BME280;59925;52.136;5.420;2022-10-16T14:09:23;101814.16;;;19.40;55.38
72061;BME280;59925;52.136;5.420;2022-10-16T14:11:56;101815.06;;;19.49;55.33
72061;BME280;59925;52.136;5.420;2022-10-16T14:14:25;101821.44;;;19.44;55.48
72061;BME280;59925;52.136;5.420;2022-10-16T14:16:53;101820.19;;;19.51;54.27
72061;BME280;59925;52.136;5.420;2022-10-16T14:19:23;101816.59;;;19.41;54.72
72061;BME280;59925;52.136;5.420;2022-10-16T14:21:51;101805.78;;;19.13;55.15
72061;BME280;59925;52.136;5.420;2022-10-16T14:24:32;101810.41;;;18.99;55.07
72061;BME280;59925;52.136;5.420;2022-10-16T14:27:00;101804.97;;;18.99;56.09
72061;BME280;59925;52.136;5.420;2022-10-16T14:29:28;101805.59;;;18.96;55.76